Allerte
Precipitazioni in corso 

Nessun fenomeno

Allerta Gelo (░C)  

Nessuna

Allerta Vento (km/h)  

Nessuna

Scarsa VisibilitÓ (m) 

Monte Termin
0
Monte Cimone
100

Allerta Caldo (░C)  

Nessuna

Allerta Afa (░C-UR)  

Nessuna

Dati e Grafici Climatici 3-7 gg
L'OMTeA propone un elaborazione dei più importanti parametri meteorologici rilevati dalle stazioni che hanno aderito al progetto di monitoraggio. In questa sezione è possibile consultare i dati provenienti dalle centraline, interpretati attraverso output testuale e grafico.
Se vuoi aderire alla rete OMTeA vai alla pagina Info e leggi requisiti e vantaggi.

Stazione di Cefal¨ - www.meteocefalu.altervista.org

Valori rilevati il 30/05/2017 alle ore 03:14

Temperatura atmosferica: 18.7 °C
Pressione atmosferica: 1013.5 mbar
Umidità relativa: 65 %
Intensità e direzione vento: 1.0 Km/h da SE

Altitudine: 20 metri s.l.m.
Latitudine: 38.02° N
Longitudine: 14.01° E



Entra nella rete OMTeA!. Potrai liberamente usare sul tuo sito questi grafici; info alla pagina Istruzioni.

Ultime 50 rilevazioni
Orario Temp
°C
Rugiada
°C
Prec.
mm
Press.
mbar
Umidità
%
Int. vento
km/h
Dir.
vento
03:14 - 30/05 18.7 12.0 0 1013.50 65 1.0 SE
02:59 - 30/05 18.6 11.9 0 1013.60 65 0 --
02:44 - 30/05 18.9 12.2 0 1013.80 65 4.6 S
02:29 - 30/05 18.8 12.1 0 1013.90 65 2.9 S
02:14 - 30/05 18.9 11.9 0 1014.10 64 2.5 S
01:59 - 30/05 19.2 12.2 0 1014.20 64 1.4 SSE
01:44 - 30/05 19.1 11.9 0 1014.20 63 1.9 SSE
01:29 - 30/05 19.1 11.6 0 1014.10 62 0.8 SSE
01:14 - 30/05 19.1 11.4 0 1014.10 61 3.3 SSE
00:59 - 30/05 19.4 11.4 0 1014.20 60 1.9 SSE
00:44 - 30/05 19.9 11.6 0 1014.20 59 1.9 SSE
00:29 - 30/05 19.9 11.9 0 1014.30 60 1.4 SSE
00:14 - 30/05 20.5 13.2 0 1014.40 63 2.3 SO
23:59 - 29/05 20.4 12.9 0 1014.40 62 2.2 SSO
23:44 - 29/05 20.4 12.9 0 1014.30 62 2.0 OSO
23:29 - 29/05 20.6 12.6 0 1014.40 60 3.3 SO
23:14 - 29/05 20.7 11.6 0 1014.20 56 5.6 SSO
22:59 - 29/05 20.4 9.9 0 1014.20 51 3.2 SO
22:44 - 29/05 20.1 9.3 0 1014.10 50 2.3 SSO
22:29 - 29/05 20.2 10.0 0 1013.90 52 2.6 S
22:14 - 29/05 20.3 10.4 0 1014.00 53 1.4 SSE
21:59 - 29/05 20.4 10.5 0 1013.90 53 0 --
21:44 - 29/05 20.7 11.1 0 1013.80 54 0.2 ENE
21:29 - 29/05 20.6 11.2 0 1013.80 55 0 --
21:14 - 29/05 20.6 11.5 0 1013.80 56 0 --
20:59 - 29/05 20.9 12.6 0 1013.50 59 0 --
20:44 - 29/05 21.1 13.8 0 1013.50 63 0 --
20:29 - 29/05 21.3 14.2 0 1013.70 64 0 --
20:14 - 29/05 21.6 14.7 0 1013.60 65 0 --
19:59 - 29/05 21.6 14.7 0 1013.50 65 0.1 ENE
19:44 - 29/05 21.8 14.9 0 1013.40 65 2.8 NE
19:29 - 29/05 21.8 15.4 0 1013.40 67 2.1 E
19:14 - 29/05 21.9 15.5 0 1013.50 67 1.8 NE
18:59 - 29/05 22.2 15.5 0 1013.50 66 2.6 ENE
18:44 - 29/05 22.5 15.6 0 1013.10 65 3.6 NE
18:29 - 29/05 22.5 15.6 0 1013.10 65 2.9 ENE
18:14 - 29/05 22.5 15.8 0 1013.20 66 3.7 ENE
17:59 - 29/05 22.6 16.2 0 1013.30 67 3.2 E
17:44 - 29/05 22.8 16.3 0 1013.50 67 4.3 ENE
17:29 - 29/05 22.7 16.0 0 1013.40 66 2.9 NNE
17:14 - 29/05 22.9 16.4 0 1013.50 67 4.7 ENE
16:59 - 29/05 22.9 16.4 0 1013.60 67 5.4 E
16:44 - 29/05 22.9 16.7 0 1013.60 68 4.1 ENE
16:29 - 29/05 22.9 16.9 0 1013.80 69 3.7 ENE
16:14 - 29/05 23.1 16.4 0 1013.70 66 6.4 ENE
15:59 - 29/05 23.2 16.2 0 1013.80 65 4.7 ENE
15:44 - 29/05 23.2 16.2 0 1013.80 65 5.1 E
15:29 - 29/05 23.2 15.8 0 1013.80 63 3.6 E
15:14 - 29/05 23.3 15.3 0 1014.00 61 4.8 ENE
14:59 - 29/05 23.2 15.3 0 1013.90 61 3.7 E


   In caso di mancato funzionamento di qualche risorsa, vi preghiamo di segnalarcelo alla pagina Contatti.
© 2017 Osservatorio Meteo OMTeA
Sito di informazione su Meteo, Tempo in atto e Clima in Italia